Webcam Flughafen St.Gallen-Altenrhein

Live-Bilder und Zeitraffer LSZR / ACH.

 

Live aus Altenrhein
LIVE
LSZR 210320Z AUTO 25003KT 220V280 CAVOK 07/07 Q1022
Zeitraffer heute
2019-09-21 00:13:55
LSZR 202150Z AUTO VRB01KT CAVOK 08/08 Q1023